Time;durP1;ratioP1;P1;durP2;ratioP2;P2;SDS_P1;SDS_P2;PMS_P1;PMS_P2;Temp;Humidity;BMP_temperature;BMP_pressure;BME280_temperature;BME280_humidity;BME280_pressure;Samples;Min_cycle;Max_cycle;Signal;HPM_P1;HPM_P2
2022/10/22 00:01:40;;;;;;;4.37;3.93;;;13.60;99.90;;;;;;4957749;28;20214;-81
2022/10/22 00:04:07;;;;;;;12.57;11.80;;;13.60;99.90;;;;;;4962088;28;20218;-81
2022/10/22 00:06:34;;;;;;;5.83;5.47;;;13.60;99.90;;;;;;4978861;28;20212;-81
2022/10/22 00:09:01;;;;;;;3.77;3.47;;;13.60;99.90;;;;;;4967783;28;20190;-81
2022/10/22 00:11:29;;;;;;;7.00;6.50;;;13.60;99.90;;;;;;4952542;28;20262;-80
2022/10/22 00:13:57;;;;;;;5.57;5.17;;;13.60;99.90;;;;;;4959962;28;20215;-81
2022/10/22 00:16:24;;;;;;;7.83;7.33;;;13.60;99.90;;;;;;4963286;28;20199;-82
2022/10/22 00:18:50;;;;;;;4.50;4.20;;;13.60;99.90;;;;;;4961944;28;20209;-82
2022/10/22 00:21:17;;;;;;;3.27;3.07;;;13.50;99.90;;;;;;4961697;28;20227;-82
2022/10/22 00:23:44;;;;;;;4.37;4.07;;;13.50;99.90;;;;;;4966157;28;20194;-81
2022/10/22 00:26:11;;;;;;;6.63;6.17;;;13.50;99.90;;;;;;4969373;28;20252;-81
2022/10/22 00:28:40;;;;;;;6.60;6.20;;;13.50;99.90;;;;;;4959480;28;20205;-81
2022/10/22 00:31:07;;;;;;;7.17;6.47;;;13.50;99.90;;;;;;4956916;28;20276;-82
2022/10/22 00:33:34;;;;;;;5.97;5.57;;;13.50;99.90;;;;;;4960131;28;20215;-81
2022/10/22 00:36:01;;;;;;;4.53;4.13;;;13.40;99.90;;;;;;4960423;28;20222;-81
2022/10/22 00:38:28;;;;;;;4.07;3.60;;;13.40;99.90;;;;;;4965342;28;20203;-82
2022/10/22 00:40:55;;;;;;;7.60;6.97;;;13.40;99.90;;;;;;4963540;28;20280;-82
2022/10/22 00:43:22;;;;;;;7.73;7.13;;;13.40;99.90;;;;;;4971642;28;20370;-82
2022/10/22 00:45:50;;;;;;;4.97;4.67;;;13.40;99.90;;;;;;4966113;28;20651;-83
2022/10/22 00:48:21;;;;;;;4.60;4.30;;;13.30;99.90;;;;;;4955254;28;20709;-81
2022/10/22 00:50:54;;;;;;;8.13;7.63;;;13.30;99.90;;;;;;4959272;28;20726;-82
2022/10/22 00:53:25;;;;;;;6.93;6.43;;;13.30;99.90;;;;;;4959360;28;20211;-81
2022/10/22 00:55:54;;;;;;;4.80;4.50;;;13.30;99.90;;;;;;4960202;28;20226;-81
2022/10/22 00:58:24;;;;;;;5.20;4.90;;;13.20;99.90;;;;;;4961201;28;20211;-81
2022/10/22 01:00:52;;;;;;;13.13;12.33;;;13.30;99.90;;;;;;4955485;28;20223;-80
2022/10/22 01:03:19;;;;;;;3.43;3.23;;;13.30;99.90;;;;;;4962240;28;20199;-81
2022/10/22 01:05:54;;;;;;;4.97;4.60;;;13.30;99.90;;;;;;4972320;28;20737;-82
2022/10/22 01:08:28;;;;;;;5.67;5.27;;;13.30;99.90;;;;;;4962784;28;20232;-81
2022/10/22 01:11:06;;;;;;;2.83;2.73;;;13.30;99.90;;;;;;4970749;28;20641;-81
2022/10/22 01:13:42;;;;;;;3.97;3.67;;;13.20;99.90;;;;;;4959705;28;20244;-81
2022/10/22 01:16:14;;;;;;;4.53;4.23;;;13.20;99.90;;;;;;4962939;28;20314;-81
2022/10/22 01:18:49;;;;;;;4.07;3.87;;;13.20;99.90;;;;;;4965891;28;20190;-81
2022/10/22 01:21:24;;;;;;;3.40;3.20;;;13.20;99.90;;;;;;4987189;28;20225;-81
2022/10/22 01:24:38;;;;;;;4.60;4.30;;;13.20;99.90;;;;;;4971339;28;20194;-81
2022/10/22 01:27:15;;;;;;;3.70;3.40;;;13.20;99.90;;;;;;5031353;28;20290;-81
2022/10/22 01:29:47;;;;;;;4.30;4.00;;;13.30;99.90;;;;;;5014487;28;20215;-83
2022/10/22 01:32:17;;;;;;;3.33;3.13;;;13.20;99.90;;;;;;4999289;28;20624;-82
2022/10/22 01:34:46;;;;;;;7.10;6.73;;;13.20;99.90;;;;;;4971030;28;20729;-82
2022/10/22 01:37:15;;;;;;;3.00;2.90;;;13.20;99.90;;;;;;4970648;28;20681;-82
2022/10/22 01:39:45;;;;;;;7.83;7.23;;;13.20;99.90;;;;;;4970470;28;20226;-81
2022/10/22 01:42:12;;;;;;;5.73;5.43;;;13.20;99.90;;;;;;4970970;28;20204;-81
2022/10/22 01:44:39;;;;;;;2.97;2.77;;;13.10;99.90;;;;;;4970918;28;20198;-82
2022/10/22 01:47:16;;;;;;;3.10;3.00;;;13.10;99.90;;;;;;4970296;28;20627;-82
2022/10/22 01:50:12;;;;;;;5.03;4.73;;;13.10;99.90;;;;;;4971685;28;20263;-81
2022/10/22 01:52:52;;;;;;;4.87;4.53;;;13.10;99.90;;;;;;4970485;28;20209;-81
2022/10/22 01:55:27;;;;;;;4.47;4.07;;;13.00;99.90;;;;;;4971760;28;20241;-82
2022/10/22 01:58:01;;;;;;;5.17;4.80;;;12.90;99.90;;;;;;4971667;28;20197;-82
2022/10/22 02:00:28;;;;;;;5.23;4.83;;;12.90;99.90;;;;;;4971102;28;20274;-82
2022/10/22 02:03:02;;;;;;;6.80;6.40;;;12.80;99.90;;;;;;4971396;28;20193;-81
2022/10/22 02:05:34;;;;;;;5.50;5.17;;;12.80;99.90;;;;;;4970559;28;20202;-81
2022/10/22 02:08:05;;;;;;;6.13;5.73;;;12.80;99.90;;;;;;4971568;28;20662;-81
2022/10/22 02:10:33;;;;;;;4.60;4.30;;;12.90;99.90;;;;;;4971116;28;20299;-82
2022/10/22 02:13:01;;;;;;;4.63;4.33;;;12.80;99.90;;;;;;4970351;28;20229;-82
2022/10/22 02:15:31;;;;;;;3.33;3.13;;;12.80;99.90;;;;;;4970086;28;20282;-81
2022/10/22 02:18:00;;;;;;;3.80;3.60;;;12.90;99.90;;;;;;4986465;28;20219;-82
2022/10/22 02:20:29;;;;;;;4.60;4.23;;;12.90;99.90;;;;;;4969904;28;20253;-81
2022/10/22 02:22:57;;;;;;;3.20;3.00;;;12.80;99.90;;;;;;4970220;28;20251;-80
2022/10/22 02:25:27;;;;;;;6.53;6.13;;;12.90;99.90;;;;;;4970282;28;20206;-82
2022/10/22 02:28:02;;;;;;;3.10;2.90;;;12.90;99.90;;;;;;4970262;28;20208;-81
2022/10/22 02:30:31;;;;;;;6.17;5.83;;;12.90;99.90;;;;;;4969992;28;20247;-82
2022/10/22 02:33:04;;;;;;;6.43;6.03;;;12.90;99.90;;;;;;4973289;28;20202;-82
2022/10/22 02:35:31;;;;;;;7.10;6.70;;;12.90;99.90;;;;;;4973613;28;20217;-82
2022/10/22 02:37:59;;;;;;;6.30;6.00;;;13.00;99.90;;;;;;4973892;28;20261;-83
2022/10/22 02:40:27;;;;;;;7.70;7.20;;;12.90;99.90;;;;;;4973460;28;20222;-81
2022/10/22 02:42:54;;;;;;;4.60;4.30;;;12.90;99.90;;;;;;4973262;28;20241;-82
2022/10/22 02:45:22;;;;;;;5.33;5.07;;;12.90;99.90;;;;;;4974561;28;20205;-80
2022/10/22 02:47:49;;;;;;;5.80;5.40;;;12.90;99.90;;;;;;4973163;28;20574;-82
2022/10/22 02:50:17;;;;;;;6.70;6.30;;;12.90;99.90;;;;;;4972739;28;20233;-81
2022/10/22 02:52:44;;;;;;;4.93;4.10;;;12.90;99.90;;;;;;4973214;28;20244;-81
2022/10/22 02:55:11;;;;;;;5.03;4.77;;;12.80;99.90;;;;;;4974644;28;20260;-81
2022/10/22 02:57:38;;;;;;;5.23;4.93;;;12.90;99.90;;;;;;4975526;28;20198;-81
2022/10/22 03:00:06;;;;;;;6.83;6.30;;;12.80;99.90;;;;;;4973799;28;20214;-81
2022/10/22 03:02:33;;;;;;;6.13;5.83;;;12.90;99.90;;;;;;4966865;28;20257;-79
2022/10/22 03:05:00;;;;;;;4.00;3.80;;;12.90;99.90;;;;;;4945003;28;20199;-81
2022/10/22 03:07:28;;;;;;;4.13;3.93;;;12.90;99.90;;;;;;4955043;28;20205;-80
2022/10/22 03:09:55;;;;;;;4.73;4.40;;;12.90;99.90;;;;;;4951898;28;20239;-81
2022/10/22 03:12:22;;;;;;;3.73;3.53;;;12.90;99.90;;;;;;4948243;28;21673;-81
2022/10/22 03:14:49;;;;;;;4.10;3.90;;;12.90;99.90;;;;;;4966740;28;20222;-81
2022/10/22 03:17:15;;;;;;;5.07;4.77;;;12.90;99.90;;;;;;4954615;28;20203;-81
2022/10/22 03:19:42;;;;;;;3.20;3.00;;;12.80;99.90;;;;;;4952505;28;20235;-81
2022/10/22 03:22:14;;;;;;;3.17;2.97;;;12.80;99.90;;;;;;4952655;28;20205;-81
2022/10/22 03:24:45;;;;;;;3.70;3.50;;;12.80;99.90;;;;;;4954799;28;20206;-80
2022/10/22 03:27:14;;;;;;;4.00;3.80;;;12.80;99.90;;;;;;4953822;28;20201;-81
2022/10/22 03:29:42;;;;;;;3.40;3.20;;;12.80;99.90;;;;;;4950588;28;20225;-80
2022/10/22 03:32:09;;;;;;;3.50;3.30;;;12.80;99.90;;;;;;4953151;28;20202;-81
2022/10/22 03:34:36;;;;;;;6.00;3.67;;;12.80;99.90;;;;;;4952334;28;20194;-81
2022/10/22 03:37:03;;;;;;;8.20;7.63;;;12.90;99.90;;;;;;4954577;28;20663;-82
2022/10/22 03:39:33;;;;;;;3.50;3.30;;;12.90;99.90;;;;;;4951932;28;20791;-80
2022/10/22 03:42:02;;;;;;;3.27;3.13;;;12.90;99.90;;;;;;4954637;28;20202;-81
2022/10/22 03:44:29;;;;;;;3.50;3.30;;;12.90;99.90;;;;;;4965952;28;20632;-81
2022/10/22 03:46:56;;;;;;;4.93;4.63;;;12.90;99.90;;;;;;4948940;28;20206;-81
2022/10/22 03:49:23;;;;;;;6.70;6.30;;;12.90;99.90;;;;;;4951470;28;20755;-81
2022/10/22 03:51:50;;;;;;;3.00;2.80;;;12.90;99.90;;;;;;4955596;28;20632;-81
2022/10/22 03:54:17;;;;;;;3.03;2.93;;;12.90;99.90;;;;;;4954854;28;20222;-81
2022/10/22 03:56:44;;;;;;;3.27;3.07;;;12.90;99.90;;;;;;4951835;28;20213;-81
2022/10/22 03:59:12;;;;;;;3.10;3.00;;;12.90;99.90;;;;;;4970511;28;20206;-81
2022/10/22 04:01:39;;;;;;;3.27;3.17;;;12.90;99.90;;;;;;4965817;28;20217;-81
2022/10/22 04:04:06;;;;;;;3.00;2.90;;;12.90;99.90;;;;;;4959843;28;20229;-80
2022/10/22 04:06:33;;;;;;;3.13;2.93;;;12.90;99.90;;;;;;4956743;28;20251;-81
2022/10/22 04:09:01;;;;;;;3.90;3.70;;;12.90;99.90;;;;;;4953937;28;20204;-82
2022/10/22 04:11:27;;;;;;;3.90;3.70;;;12.90;99.90;;;;;;4955506;28;20229;-83
2022/10/22 04:13:54;;;;;;;6.73;6.33;;;12.90;99.90;;;;;;4968800;28;20206;-82
2022/10/22 04:16:23;;;;;;;12.70;12.00;;;12.80;99.90;;;;;;4959715;28;20275;-83
2022/10/22 04:18:50;;;;;;;12.93;12.23;;;12.80;99.90;;;;;;4968382;28;20687;-83
2022/10/22 04:21:19;;;;;;;12.87;12.17;;;12.80;99.90;;;;;;4963320;28;20210;-82
2022/10/22 04:23:47;;;;;;;13.20;12.40;;;12.80;99.90;;;;;;4973280;28;20205;-81
2022/10/22 04:26:14;;;;;;;13.20;12.50;;;12.80;99.90;;;;;;4964756;28;20374;-83
2022/10/22 04:28:41;;;;;;;12.87;12.20;;;12.80;99.90;;;;;;4964367;28;20208;-83
2022/10/22 04:31:09;;;;;;;13.37;12.67;;;12.70;99.90;;;;;;4960116;28;20229;-82
2022/10/22 04:33:38;;;;;;;13.20;12.50;;;12.70;99.90;;;;;;4965934;28;20209;-83
2022/10/22 04:36:08;;;;;;;13.80;13.00;;;12.70;99.90;;;;;;4965758;28;20214;-83
2022/10/22 04:38:35;;;;;;;13.70;12.90;;;12.70;99.90;;;;;;4967253;28;20263;-83
2022/10/22 04:41:10;;;;;;;13.77;13.07;;;12.60;99.90;;;;;;4955985;28;20220;-85
2022/10/22 04:43:37;;;;;;;14.00;13.20;;;12.60;99.90;;;;;;4971518;28;20193;-83
2022/10/22 04:46:05;;;;;;;13.67;12.97;;;12.60;99.90;;;;;;4960784;28;20208;-82
2022/10/22 04:48:32;;;;;;;13.73;12.93;;;12.60;99.90;;;;;;4951637;28;20201;-84
2022/10/22 04:51:00;;;;;;;13.43;12.73;;;12.60;99.90;;;;;;4951885;28;20221;-84
2022/10/22 04:53:27;;;;;;;13.40;12.70;;;12.60;99.90;;;;;;4960047;28;20205;-84
2022/10/22 04:55:54;;;;;;;13.40;12.70;;;12.60;99.90;;;;;;4959663;28;20252;-81
2022/10/22 04:58:21;;;;;;;14.07;13.33;;;12.60;99.90;;;;;;4985111;28;20206;-82
2022/10/22 05:00:48;;;;;;;13.70;13.00;;;12.60;99.90;;;;;;4961728;28;20286;-83
2022/10/22 05:03:15;;;;;;;13.40;12.70;;;12.60;99.90;;;;;;4970160;28;20216;-83
2022/10/22 05:05:41;;;;;;;13.77;12.97;;;12.60;99.90;;;;;;4958828;28;20887;-83
2022/10/22 05:08:10;;;;;;;13.50;12.70;;;12.60;99.90;;;;;;4963542;28;20213;-81
2022/10/22 05:10:36;;;;;;;13.60;12.90;;;12.70;99.90;;;;;;4951216;28;20230;-83
2022/10/22 05:13:03;;;;;;;13.60;12.90;;;12.60;99.90;;;;;;4953416;28;20210;-83
2022/10/22 05:15:30;;;;;;;13.70;13.00;;;12.60;99.90;;;;;;4966673;28;20597;-82
2022/10/22 05:17:57;;;;;;;13.57;12.87;;;12.60;99.90;;;;;;4951131;28;20206;-82
2022/10/22 05:20:24;;;;;;;13.37;12.67;;;12.60;99.90;;;;;;4962180;28;20228;-82
2022/10/22 05:22:51;;;;;;;13.90;13.17;;;12.70;99.90;;;;;;4955801;28;20205;-80
2022/10/22 05:25:19;;;;;;;13.50;12.80;;;12.60;99.90;;;;;;4960996;28;20203;-81
2022/10/22 05:27:49;;;;;;;13.73;12.93;;;12.70;99.90;;;;;;4960933;28;20206;-81
2022/10/22 05:30:16;;;;;;;13.93;13.20;;;12.70;99.90;;;;;;4967810;28;20258;-84
2022/10/22 05:32:43;;;;;;;13.80;13.10;;;12.70;99.90;;;;;;4951836;28;20256;-83
2022/10/22 05:35:10;;;;;;;13.63;12.93;;;12.70;99.90;;;;;;4963663;28;20216;-83
2022/10/22 05:37:37;;;;;;;13.83;13.13;;;12.70;99.90;;;;;;4966915;28;20202;-82
2022/10/22 05:40:05;;;;;;;14.10;13.30;;;12.70;99.90;;;;;;4959878;28;20325;-81
2022/10/22 05:42:34;;;;;;;13.90;13.20;;;12.70;99.90;;;;;;4952418;28;20328;-82
2022/10/22 05:45:00;;;;;;;14.00;13.20;;;12.70;99.90;;;;;;4950974;28;20206;-82
2022/10/22 05:47:29;;;;;;;13.83;13.10;;;12.70;99.90;;;;;;4955473;28;20963;-82
2022/10/22 05:49:57;;;;;;;13.87;13.17;;;12.70;99.90;;;;;;4954369;28;20221;-81
2022/10/22 05:52:23;;;;;;;14.07;13.27;;;12.70;99.90;;;;;;4959354;28;20268;-81
2022/10/22 05:54:50;;;;;;;14.40;13.60;;;12.70;99.90;;;;;;4954219;28;20205;-83
2022/10/22 05:57:17;;;;;;;13.70;12.90;;;12.70;99.90;;;;;;4951982;28;20222;-83
2022/10/22 05:59:46;;;;;;;14.73;13.90;;;12.70;99.90;;;;;;4961665;28;20222;-80
2022/10/22 06:02:13;;;;;;;13.80;13.10;;;12.70;99.90;;;;;;4955775;28;20213;-84
2022/10/22 06:04:40;;;;;;;13.77;13.07;;;12.70;99.90;;;;;;4960987;28;20205;-84
2022/10/22 06:07:13;;;;;;;14.10;13.40;;;12.80;99.90;;;;;;4948653;28;20263;-86
2022/10/22 06:09:40;;;;;;;14.23;13.43;;;12.70;99.90;;;;;;4950167;28;20317;-79
2022/10/22 06:12:09;;;;;;;14.40;13.60;;;12.70;99.90;;;;;;4952259;28;20661;-80
2022/10/22 06:14:37;;;;;;;14.70;13.80;;;12.70;99.90;;;;;;4957672;28;20204;-80
2022/10/22 06:17:05;;;;;;;14.00;13.20;;;12.70;99.90;;;;;;4956874;28;20717;-81
2022/10/22 06:19:32;;;;;;;13.80;13.10;;;12.70;99.90;;;;;;4952320;28;20194;-80
2022/10/22 06:21:59;;;;;;;14.10;13.37;;;12.70;99.90;;;;;;4960030;28;20194;-79
2022/10/22 06:24:25;;;;;;;13.97;13.27;;;12.80;99.90;;;;;;4953361;28;20683;-79
2022/10/22 06:26:52;;;;;;;14.20;13.40;;;12.70;99.90;;;;;;4947191;28;20195;-79
2022/10/22 06:29:20;;;;;;;14.10;13.30;;;12.80;99.90;;;;;;4949562;28;20207;-79
2022/10/22 06:31:47;;;;;;;13.80;13.00;;;12.70;99.90;;;;;;4951199;28;20208;-79
2022/10/22 06:34:17;;;;;;;13.60;12.90;;;12.70;99.90;;;;;;4958766;28;20612;-79
2022/10/22 06:36:45;;;;;;;14.00;13.23;;;12.70;99.90;;;;;;4947609;28;20650;-79
2022/10/22 06:39:13;;;;;;;13.83;13.03;;;12.70;99.90;;;;;;4950179;28;20225;-78
2022/10/22 06:41:40;;;;;;;13.63;12.87;;;12.80;99.90;;;;;;4955431;28;20225;-79
2022/10/22 06:44:10;;;;;;;18.03;16.93;;;12.80;99.90;;;;;;4951054;28;20206;-79
2022/10/22 06:46:37;;;;;;;10.47;9.93;;;12.80;99.90;;;;;;4978946;28;20198;-79
2022/10/22 06:49:04;;;;;;;7.47;6.97;;;12.80;99.90;;;;;;4953999;28;20203;-80
2022/10/22 06:51:32;;;;;;;11.10;4.23;;;12.90;99.90;;;;;;4957838;28;20220;-80
2022/10/22 06:53:59;;;;;;;3.60;3.30;;;12.90;99.90;;;;;;4958815;28;20199;-80
2022/10/22 06:56:28;;;;;;;4.03;3.60;;;12.90;99.90;;;;;;4963672;28;20731;-79
2022/10/22 06:58:56;;;;;;;3.83;3.57;;;13.10;99.90;;;;;;4961316;28;20285;-79
2022/10/22 07:01:25;;;;;;;3.50;3.30;;;13.10;99.90;;;;;;4969214;28;20221;-79
2022/10/22 07:03:52;;;;;;;7.63;7.23;;;13.20;99.90;;;;;;4965717;28;20194;-80
2022/10/22 07:06:20;;;;;;;3.30;3.10;;;13.30;99.90;;;;;;4956165;28;20198;-80
2022/10/22 07:08:49;;;;;;;3.57;3.30;;;13.30;99.90;;;;;;4956084;28;20203;-80
2022/10/22 07:11:18;;;;;;;3.40;3.20;;;13.40;99.90;;;;;;4960656;28;20231;-80
2022/10/22 07:13:46;;;;;;;3.40;3.20;;;13.40;99.90;;;;;;4959852;28;20226;-79
2022/10/22 07:16:13;;;;;;;3.37;3.17;;;13.40;99.90;;;;;;4960051;28;20226;-79
2022/10/22 07:18:41;;;;;;;3.30;3.10;;;13.40;99.90;;;;;;4964782;28;20198;-81
2022/10/22 07:21:10;;;;;;;9.83;9.23;;;13.50;99.90;;;;;;4970572;28;20275;-80
2022/10/22 07:23:37;;;;;;;7.80;7.20;;;13.50;99.90;;;;;;4959892;28;20624;-81
2022/10/22 07:26:07;;;;;;;4.80;4.50;;;13.60;99.90;;;;;;4951798;28;20211;-82
2022/10/22 07:28:35;;;;;;;3.57;3.37;;;13.60;99.90;;;;;;4954217;28;20229;-82
2022/10/22 07:31:02;;;;;;;3.30;3.10;;;13.70;99.90;;;;;;4957941;28;20255;-82
2022/10/22 07:33:29;;;;;;;3.33;3.13;;;13.70;99.90;;;;;;4954002;28;20194;-80
2022/10/22 07:35:59;;;;;;;3.20;3.00;;;13.90;99.90;;;;;;4967016;28;20196;-83
2022/10/22 07:38:26;;;;;;;9.97;9.37;;;14.10;99.90;;;;;;4949843;28;20286;-82
2022/10/22 07:40:54;;;;;;;7.57;7.03;;;14.20;99.90;;;;;;4955696;28;20222;-82
2022/10/22 07:43:23;;;;;;;3.17;2.90;;;14.50;99.90;;;;;;4955666;28;20262;-82
2022/10/22 07:45:50;;;;;;;2.97;2.80;;;14.70;99.90;;;;;;4960827;28;20194;-81
2022/10/22 07:48:18;;;;;;;3.20;3.00;;;14.80;99.90;;;;;;4958164;28;20692;-82
2022/10/22 07:50:45;;;;;;;3.17;2.97;;;14.80;99.90;;;;;;4953947;28;20223;-80
2022/10/22 07:53:12;;;;;;;3.00;2.90;;;15.00;99.90;;;;;;4959617;28;20730;-80
2022/10/22 07:55:39;;;;;;;3.10;2.90;;;15.00;99.90;;;;;;4963797;28;20204;-80
2022/10/22 07:58:05;;;;;;;2.87;2.77;;;15.10;99.90;;;;;;4964440;28;20226;-81
2022/10/22 08:00:34;;;;;;;3.27;3.17;;;15.30;99.90;;;;;;4963006;28;20225;-80
2022/10/22 08:03:00;;;;;;;3.30;3.00;;;15.50;99.90;;;;;;4952838;28;20224;-80
2022/10/22 08:05:27;;;;;;;3.00;2.90;;;15.80;99.90;;;;;;4955385;28;20200;-79
2022/10/22 08:07:54;;;;;;;3.10;2.90;;;16.10;99.90;;;;;;4960097;28;20720;-80
2022/10/22 08:10:21;;;;;;;3.00;2.80;;;16.60;99.90;;;;;;4971051;28;20710;-80
2022/10/22 08:12:48;;;;;;;11.80;11.20;;;17.30;99.90;;;;;;4975689;28;20210;-79
2022/10/22 08:15:15;;;;;;;9.90;9.30;;;17.90;99.90;;;;;;4969682;28;20268;-80
2022/10/22 08:17:43;;;;;;;4.10;3.00;;;18.30;99.90;;;;;;4965023;28;20218;-79
2022/10/22 08:20:10;;;;;;;6.83;6.43;;;18.50;99.90;;;;;;4970066;28;20219;-79
2022/10/22 08:22:37;;;;;;;11.73;10.93;;;18.80;99.90;;;;;;4958424;28;20207;-80
2022/10/22 08:25:05;;;;;;;10.37;9.77;;;19.00;99.90;;;;;;4958214;28;20210;-80
2022/10/22 08:27:32;;;;;;;8.40;7.90;;;19.30;99.90;;;;;;4961607;28;20197;-80
2022/10/22 08:29:58;;;;;;;9.83;9.27;;;19.40;99.90;;;;;;4961504;28;20267;-79
2022/10/22 08:32:25;;;;;;;8.83;8.20;;;19.60;99.90;;;;;;4960263;28;20240;-79
2022/10/22 08:34:54;;;;;;;7.07;6.60;;;19.70;99.90;;;;;;4963657;28;20260;-80
2022/10/22 08:37:21;;;;;;;8.77;8.17;;;19.70;99.90;;;;;;4971229;28;20252;-79
2022/10/22 08:39:48;;;;;;;3.67;3.37;;;19.90;99.90;;;;;;4968355;28;20552;-80
2022/10/22 08:42:48;;;;;;;5.13;4.73;;;20.10;99.90;;;;;;4956332;28;20215;-79
2022/10/22 08:45:23;;;;;;;6.47;6.10;;;20.30;99.90;;;;;;4988266;28;20686;-79
2022/10/22 08:48:02;;;;;;;5.93;5.53;;;20.60;99.90;;;;;;4959769;28;20255;-80
2022/10/22 08:50:35;;;;;;;5.63;5.33;;;20.70;99.90;;;;;;4953436;28;20614;-79
2022/10/22 08:53:08;;;;;;;7.50;7.00;;;20.90;99.90;;;;;;4958976;28;20203;-79
2022/10/22 08:55:37;;;;;;;3.27;3.07;;;21.00;99.90;;;;;;4961783;28;20218;-80
2022/10/22 08:58:16;;;;;;;2.67;2.50;;;21.10;99.90;;;;;;4962225;28;20234;-79
2022/10/22 09:00:46;;;;;;;8.50;7.80;;;21.10;99.90;;;;;;4959543;28;20217;-79
2022/10/22 09:03:29;;;;;;;6.03;5.47;;;21.10;99.90;;;;;;4957566;28;20256;-80
2022/10/22 09:06:03;;;;;;;5.93;5.63;;;21.10;99.90;;;;;;4964246;28;20203;-80
2022/10/22 09:08:30;;;;;;;2.70;2.50;;;21.00;99.90;;;;;;4953753;28;20193;-79
2022/10/22 09:11:03;;;;;;;2.90;2.70;;;21.10;99.90;;;;;;4958174;28;20222;-80
2022/10/22 09:13:30;;;;;;;2.80;2.63;;;20.90;99.90;;;;;;4954588;28;20202;-80
2022/10/22 09:16:00;;;;;;;6.83;5.53;;;21.00;99.90;;;;;;4962455;28;20205;-80
2022/10/22 09:18:36;;;;;;;2.40;2.30;;;21.00;99.90;;;;;;4960072;28;20228;-79
2022/10/22 09:21:13;;;;;;;3.60;3.40;;;21.00;99.90;;;;;;4958276;28;20226;-79
2022/10/22 09:23:55;;;;;;;3.63;3.43;;;21.10;99.90;;;;;;4960659;28;20198;-79
2022/10/22 09:26:22;;;;;;;2.70;2.50;;;21.20;99.90;;;;;;4961235;28;20211;-80
2022/10/22 09:28:50;;;;;;;2.60;2.40;;;21.30;99.90;;;;;;4961394;28;20197;-80
2022/10/22 09:31:18;;;;;;;2.77;2.57;;;21.30;99.90;;;;;;4959207;28;20222;-80
2022/10/22 09:33:47;;;;;;;2.93;2.73;;;21.20;99.90;;;;;;4963032;28;20190;-80
2022/10/22 09:36:18;;;;;;;2.63;2.47;;;21.10;99.90;;;;;;4969702;28;20198;-80
2022/10/22 09:38:48;;;;;;;2.60;2.40;;;21.10;99.90;;;;;;4954655;28;20222;-82
2022/10/22 09:41:15;;;;;;;2.93;2.60;;;21.00;99.90;;;;;;4951190;28;20223;-83
2022/10/22 09:43:42;;;;;;;3.37;3.17;;;21.00;99.90;;;;;;4959377;28;20678;-82
2022/10/22 09:46:16;;;;;;;3.43;3.10;;;20.90;99.90;;;;;;4957643;28;20212;-82
2022/10/22 09:48:48;;;;;;;4.07;3.77;;;20.80;99.90;;;;;;4965259;28;20194;-82
2022/10/22 09:51:20;;;;;;;2.73;2.53;;;20.60;99.90;;;;;;4956899;28;20222;-82
2022/10/22 09:53:55;;;;;;;2.50;2.40;;;20.60;99.90;;;;;;4964639;28;20209;-82
2022/10/22 09:56:26;;;;;;;7.87;5.33;;;20.60;99.90;;;;;;4964448;28;20201;-83
2022/10/22 09:58:55;;;;;;;2.40;2.20;;;20.40;99.90;;;;;;4953844;28;20215;-84
2022/10/22 10:01:25;;;;;;;4.17;3.87;;;20.20;99.90;;;;;;4949182;28;21082;-83
2022/10/22 10:03:52;;;;;;;3.70;3.40;;;20.20;99.90;;;;;;4951806;28;20260;-83
2022/10/22 10:06:22;;;;;;;2.83;2.57;;;20.00;99.90;;;;;;4964504;28;20576;-82
2022/10/22 10:08:49;;;;;;;4.53;4.23;;;20.00;99.90;;;;;;4963367;28;20186;-82
2022/10/22 10:11:25;;;;;;;7.33;6.90;;;19.90;99.90;;;;;;4969887;28;20233;-82
2022/10/22 10:14:00;;;;;;;5.07;4.73;;;19.90;99.90;;;;;;4963578;28;20193;-82
2022/10/22 10:16:38;;;;;;;4.03;3.73;;;19.80;99.90;;;;;;4965023;28;20201;-82
2022/10/22 10:19:29;;;;;;;4.23;3.80;;;19.60;99.90;;;;;;4963830;28;20221;-82
2022/10/22 10:22:07;;;;;;;4.77;4.43;;;19.60;99.90;;;;;;4955542;28;20205;-83
2022/10/22 10:24:45;;;;;;;5.67;5.23;;;19.50;99.90;;;;;;4962701;28;20263;-83
2022/10/22 10:27:20;;;;;;;7.43;6.93;;;19.50;99.90;;;;;;4964762;28;20694;-83
2022/10/22 10:29:55;;;;;;;7.43;6.93;;;19.50;99.90;;;;;;4963924;28;20320;-81
2022/10/22 10:32:32;;;;;;;8.87;8.37;;;19.50;99.90;;;;;;4961388;28;20198;-80
2022/10/22 10:35:14;;;;;;;4.67;4.37;;;19.50;99.90;;;;;;4958561;28;20198;-80
2022/10/22 10:37:50;;;;;;;5.80;5.40;;;19.40;99.90;;;;;;4948442;28;20214;-81
2022/10/22 10:40:26;;;;;;;5.17;4.77;;;19.40;99.90;;;;;;4962875;28;20236;-81
2022/10/22 10:43:00;;;;;;;6.97;6.50;;;19.40;99.90;;;;;;4961955;28;20237;-82
2022/10/22 10:45:36;;;;;;;7.63;7.07;;;19.40;99.90;;;;;;4969030;28;20775;-82
2022/10/22 10:48:21;;;;;;;6.07;5.67;;;19.30;99.90;;;;;;4959541;28;20257;-82
2022/10/22 10:50:59;;;;;;;4.70;4.40;;;19.30;99.90;;;;;;4960279;28;20588;-81
2022/10/22 10:53:42;;;;;;;5.23;4.87;;;19.20;99.90;;;;;;4957242;28;20542;-82
2022/10/22 10:56:23;;;;;;;10.33;9.63;;;19.20;99.90;;;;;;4970037;28;20678;-81
2022/10/22 10:58:57;;;;;;;3.63;2.43;;;19.10;99.90;;;;;;4986006;28;20239;-82
2022/10/22 11:01:29;;;;;;;5.00;2.50;;;19.00;99.90;;;;;;4967131;28;20726;-81
2022/10/22 11:04:28;;;;;;;2.90;2.70;;;19.00;99.90;;;;;;4966431;28;20205;-82
2022/10/22 11:06:58;;;;;;;2.43;2.30;;;18.90;99.90;;;;;;4948809;28;20209;-79
2022/10/22 11:09:30;;;;;;;9.07;8.57;;;18.90;99.90;;;;;;4948523;28;20203;-82
2022/10/22 11:12:02;;;;;;;3.67;3.00;;;18.90;99.90;;;;;;4966448;28;20208;-81
2022/10/22 11:14:35;;;;;;;7.83;7.23;;;18.90;99.90;;;;;;4974433;28;20203;-82
2022/10/22 11:17:10;;;;;;;9.73;9.20;;;18.90;99.90;;;;;;4971047;28;20203;-83
2022/10/22 11:19:42;;;;;;;8.20;7.70;;;18.90;99.90;;;;;;4955264;28;20205;-81
2022/10/22 11:22:15;;;;;;;5.10;4.63;;;18.90;99.90;;;;;;4948309;28;20213;-81
2022/10/22 11:24:52;;;;;;;9.70;9.00;;;18.90;99.90;;;;;;4962185;28;20198;-81
2022/10/22 11:27:26;;;;;;;5.67;4.07;;;18.90;99.90;;;;;;4954307;28;20283;-82
2022/10/22 11:30:00;;;;;;;7.40;6.90;;;18.90;99.90;;;;;;4961493;28;20217;-83
2022/10/22 11:32:28;;;;;;;9.80;9.03;;;18.90;99.90;;;;;;4950458;28;20292;-83
2022/10/22 11:34:59;;;;;;;6.50;6.00;;;18.80;99.90;;;;;;4960849;28;20200;-82
2022/10/22 11:37:33;;;;;;;4.53;4.23;;;18.60;99.90;;;;;;4973509;28;20215;-83
2022/10/22 11:40:05;;;;;;;3.33;3.03;;;18.60;99.90;;;;;;4967948;28;20223;-80
2022/10/22 11:42:36;;;;;;;3.67;3.37;;;18.60;99.90;;;;;;4956474;28;20257;-81
2022/10/22 11:45:27;;;;;;;6.40;6.00;;;18.50;99.90;;;;;;4969286;28;20207;-82
2022/10/22 11:48:05;;;;;;;10.20;9.60;;;18.40;99.90;;;;;;4964016;28;20662;-82
2022/10/22 11:50:46;;;;;;;9.97;9.37;;;18.40;99.90;;;;;;4952136;28;20243;-79
2022/10/22 11:53:20;;;;;;;10.07;9.47;;;18.40;99.90;;;;;;4970660;28;20294;-80
2022/10/22 11:55:51;;;;;;;4.80;4.50;;;18.40;99.90;;;;;;4961795;28;20670;-79
2022/10/22 11:58:30;;;;;;;3.27;3.07;;;18.40;99.90;;;;;;4965175;28;20278;-81
2022/10/22 12:01:17;;;;;;;4.80;4.60;;;18.50;99.90;;;;;;4962860;28;20216;-80
2022/10/22 12:03:49;;;;;;;5.70;5.13;;;18.50;99.90;;;;;;4964193;28;20259;-81
2022/10/22 12:06:23;;;;;;;10.07;9.50;;;18.60;99.90;;;;;;4954134;28;20197;-80
2022/10/22 12:08:59;;;;;;;4.63;4.27;;;18.60;99.90;;;;;;4962678;28;20218;-81
2022/10/22 12:11:35;;;;;;;3.43;3.13;;;18.60;99.90;;;;;;4964751;28;20223;-81
2022/10/22 12:14:19;;;;;;;5.10;4.70;;;18.70;99.90;;;;;;4965039;28;20659;-81
2022/10/22 12:16:51;;;;;;;2.90;2.70;;;18.70;99.90;;;;;;4955702;28;20216;-82
2022/10/22 12:19:24;;;;;;;2.20;2.10;;;18.80;99.90;;;;;;4963934;28;20208;-80
2022/10/22 12:21:54;;;;;;;2.10;2.00;;;18.80;99.90;;;;;;4967738;28;20252;-80
2022/10/22 12:24:24;;;;;;;2.17;2.00;;;18.80;99.90;;;;;;4958902;28;20676;-80
2022/10/22 12:26:52;;;;;;;2.00;1.90;;;18.90;99.90;;;;;;4959098;28;20210;-81
2022/10/22 12:29:22;;;;;;;2.57;2.17;;;18.90;99.90;;;;;;4951722;28;20612;-82
2022/10/22 12:31:49;;;;;;;2.40;2.20;;;18.90;99.90;;;;;;4957665;28;20205;-82
2022/10/22 12:34:18;;;;;;;2.67;2.37;;;18.90;99.90;;;;;;4951462;28;20448;-84
2022/10/22 12:36:47;;;;;;;2.40;2.20;;;18.90;99.90;;;;;;4953759;28;20195;-82
2022/10/22 12:39:16;;;;;;;3.97;3.70;;;19.00;99.90;;;;;;4964942;28;20266;-81
2022/10/22 12:41:43;;;;;;;2.73;2.00;;;19.00;99.90;;;;;;4957098;28;20729;-81
2022/10/22 12:44:14;;;;;;;4.10;2.17;;;19.10;99.90;;;;;;4957693;28;20202;-83
2022/10/22 12:46:42;;;;;;;2.37;2.27;;;19.10;99.90;;;;;;4956833;28;20197;-82
2022/10/22 12:49:15;;;;;;;2.23;2.07;;;19.10;99.90;;;;;;4963323;28;20292;-82
2022/10/22 12:51:43;;;;;;;2.50;2.23;;;19.20;99.90;;;;;;4958641;28;20218;-82
2022/10/22 12:54:19;;;;;;;2.87;2.20;;;19.20;99.90;;;;;;4973465;28;20200;-82
2022/10/22 12:56:48;;;;;;;7.83;7.40;;;19.20;99.90;;;;;;4964304;28;20292;-83
2022/10/22 12:59:20;;;;;;;3.30;2.87;;;19.20;99.90;;;;;;4956494;28;20243;-82